createdAt,value
2019-01-08T00:00:32.707Z,1011.04
2019-01-08T00:01:32.672Z,1011.04
2019-01-08T00:02:32.627Z,1011.11
2019-01-08T00:03:41.542Z,1010.97
2019-01-08T00:05:37.097Z,1010.95
2019-01-08T00:06:36.978Z,1010.94
2019-01-08T00:07:36.952Z,1010.94
2019-01-08T00:08:37.077Z,1010.90
2019-01-08T00:09:36.864Z,1010.86
2019-01-08T00:10:36.866Z,1010.88
2019-01-08T00:11:36.797Z,1010.92
2019-01-08T00:12:36.759Z,1010.89
2019-01-08T00:13:36.724Z,1010.88
2019-01-08T00:14:36.681Z,1010.90
2019-01-08T00:15:36.652Z,1010.90
2019-01-08T00:16:36.612Z,1010.89
2019-01-08T00:17:36.587Z,1010.91
2019-01-08T00:18:36.534Z,1010.83
2019-01-08T00:19:36.513Z,1010.81
2019-01-08T00:20:36.464Z,1010.73
2019-01-08T00:21:36.431Z,1010.69
2019-01-08T00:22:36.407Z,1010.69
2019-01-08T00:23:36.392Z,1010.65
2019-01-08T00:24:36.327Z,1010.77
2019-01-08T00:25:36.301Z,1010.76
2019-01-08T00:26:36.247Z,1010.77
2019-01-08T00:27:36.218Z,1010.67
2019-01-08T00:28:43.024Z,1010.59
2019-01-08T00:29:36.149Z,1010.70
2019-01-08T00:30:36.140Z,1010.62
2019-01-08T00:31:36.099Z,1010.68
2019-01-08T00:32:36.078Z,1010.76
2019-01-08T00:33:36.022Z,1010.63
2019-01-08T00:34:35.963Z,1010.65
2019-01-08T00:35:35.949Z,1010.71
2019-01-08T00:36:35.914Z,1010.61
2019-01-08T00:37:35.874Z,1010.63
2019-01-08T00:38:35.834Z,1010.62
2019-01-08T00:39:35.793Z,1010.63
2019-01-08T00:40:35.752Z,1010.58
2019-01-08T00:41:35.719Z,1010.62
2019-01-08T00:42:35.688Z,1010.60
2019-01-08T00:43:35.649Z,1010.56
2019-01-08T00:44:35.644Z,1010.56
2019-01-08T00:45:35.574Z,1010.58
2019-01-08T00:46:35.547Z,1010.62
2019-01-08T00:47:35.518Z,1010.67
2019-01-08T00:48:35.481Z,1010.62
2019-01-08T00:49:35.441Z,1010.60
2019-01-08T00:50:35.426Z,1010.56
2019-01-08T00:51:35.371Z,1010.55
2019-01-08T00:52:35.329Z,1010.48
2019-01-08T00:53:35.298Z,1010.43
2019-01-08T00:54:35.270Z,1010.43
2019-01-08T00:55:35.235Z,1010.48
2019-01-08T00:56:35.199Z,1010.53
2019-01-08T00:57:35.160Z,1010.43
2019-01-08T00:58:35.150Z,1010.47
2019-01-08T00:59:35.103Z,1010.43
2019-01-08T01:00:35.055Z,1010.53
2019-01-08T01:01:35.004Z,1010.53
2019-01-08T01:02:34.974Z,1010.42
2019-01-08T01:03:34.974Z,1010.47
2019-01-08T01:04:34.934Z,1010.47
2019-01-08T01:05:34.865Z,1010.48
2019-01-08T01:06:34.849Z,1010.65
2019-01-08T01:07:34.840Z,1010.63
2019-01-08T01:08:34.770Z,1010.70
2019-01-08T01:09:34.777Z,1010.89
2019-01-08T01:10:34.715Z,1010.82
2019-01-08T01:11:34.669Z,1010.96
2019-01-08T01:12:34.629Z,1011.05
2019-01-08T01:13:34.614Z,1011.00
2019-01-08T01:14:34.551Z,1010.93
2019-01-08T01:15:34.520Z,1010.93
2019-01-08T01:16:34.477Z,1010.89
2019-01-08T01:17:34.461Z,1010.87
2019-01-08T01:18:34.405Z,1010.89
2019-01-08T01:19:34.386Z,1010.94
2019-01-08T01:20:34.339Z,1010.78
2019-01-08T01:21:34.294Z,1010.73
2019-01-08T01:22:34.257Z,1010.76
2019-01-08T01:23:34.230Z,1010.73
2019-01-08T01:24:34.186Z,1010.72
2019-01-08T01:25:34.177Z,1010.70
2019-01-08T01:26:34.156Z,1010.71
2019-01-08T01:27:34.124Z,1010.71
2019-01-08T01:28:34.039Z,1010.70
2019-01-08T01:29:34.009Z,1010.64
2019-01-08T01:30:33.975Z,1010.64
2019-01-08T01:31:33.930Z,1010.68
2019-01-08T01:32:33.895Z,1010.62
2019-01-08T01:33:33.864Z,1010.56
2019-01-08T01:34:33.827Z,1010.57
2019-01-08T01:35:33.807Z,1010.59
2019-01-08T01:36:33.762Z,1010.65
2019-01-08T01:37:33.774Z,1010.57
2019-01-08T01:38:33.680Z,1010.59
2019-01-08T01:39:33.671Z,1010.53
2019-01-08T01:40:33.615Z,1010.55
2019-01-08T01:41:33.582Z,1010.51
2019-01-08T01:42:33.546Z,1010.49
2019-01-08T01:43:33.503Z,1010.36
2019-01-08T01:44:33.456Z,1010.31
2019-01-08T01:45:33.445Z,1010.33
2019-01-08T01:46:33.388Z,1010.37
2019-01-08T01:47:33.352Z,1010.37
2019-01-08T01:48:33.316Z,1010.35
2019-01-08T01:49:33.289Z,1010.34
2019-01-08T01:50:33.278Z,1010.37
2019-01-08T01:51:33.212Z,1010.40
2019-01-08T01:52:33.179Z,1010.44
2019-01-08T01:53:33.138Z,1010.43
2019-01-08T01:54:33.106Z,1010.47
2019-01-08T01:55:33.111Z,1010.42
2019-01-08T01:56:33.037Z,1010.42
2019-01-08T01:57:32.993Z,1010.47
2019-01-08T01:58:32.969Z,1010.39
2019-01-08T01:59:32.916Z,1010.45
2019-01-08T02:00:32.911Z,1010.44
2019-01-08T02:01:32.846Z,1010.46
2019-01-08T02:02:32.811Z,1010.47
2019-01-08T02:03:32.871Z,1010.44
2019-01-08T02:04:32.746Z,1010.47
2019-01-08T02:05:32.717Z,1010.48
2019-01-08T02:06:32.658Z,1010.50
2019-01-08T02:07:32.623Z,1010.52
2019-01-08T02:08:32.592Z,1010.45
2019-01-08T02:09:32.598Z,1010.50
2019-01-08T02:10:32.529Z,1010.48
2019-01-08T02:11:32.519Z,1010.46
2019-01-08T02:12:32.461Z,1010.57
2019-01-08T02:13:32.418Z,1010.49
2019-01-08T02:14:32.377Z,1010.52
2019-01-08T02:15:32.383Z,1010.49
2019-01-08T02:16:32.293Z,1010.51
2019-01-08T02:17:32.258Z,1010.48
2019-01-08T02:18:32.245Z,1010.52
2019-01-08T02:19:32.228Z,1010.47
2019-01-08T02:20:32.174Z,1010.50
2019-01-08T02:21:32.117Z,1010.47
2019-01-08T02:22:32.075Z,1010.50
2019-01-08T02:23:32.081Z,1010.52
2019-01-08T02:24:32.007Z,1010.50
2019-01-08T02:25:31.967Z,1010.48
2019-01-08T02:26:31.963Z,1010.53
2019-01-08T02:27:31.893Z,1010.51
2019-01-08T02:28:31.853Z,1010.50
2019-01-08T02:29:31.822Z,1010.47
2019-01-08T02:30:31.817Z,1010.46
2019-01-08T02:31:31.777Z,1010.52
2019-01-08T02:32:31.749Z,1010.52
2019-01-08T02:33:31.694Z,1010.52
2019-01-08T02:34:31.670Z,1010.50
2019-01-08T02:35:31.610Z,1010.54
2019-01-08T02:36:31.581Z,1010.49
2019-01-08T02:37:31.530Z,1010.46
2019-01-08T02:38:31.515Z,1010.48
2019-01-08T02:39:31.450Z,1010.48
2019-01-08T02:40:31.419Z,1010.42
2019-01-08T02:41:31.511Z,1010.45
2019-01-08T02:42:31.370Z,1010.49
2019-01-08T02:43:31.310Z,1010.43
2019-01-08T02:44:31.365Z,1010.48
2019-01-08T02:45:31.246Z,1010.43
2019-01-08T02:46:31.251Z,1010.52
2019-01-08T02:47:31.187Z,1010.41
2019-01-08T02:48:31.168Z,1010.39
2019-01-08T02:49:31.111Z,1010.44
2019-01-08T02:50:31.069Z,1010.41
2019-01-08T02:51:31.057Z,1010.40
2019-01-08T02:52:30.984Z,1010.39
2019-01-08T02:53:30.946Z,1010.41
2019-01-08T02:54:30.918Z,1010.38
2019-01-08T02:55:30.895Z,1010.43
2019-01-08T02:56:30.836Z,1010.36
2019-01-08T02:57:30.814Z,1010.41
2019-01-08T02:58:30.795Z,1010.39
2019-01-08T02:59:30.731Z,1010.37
2019-01-08T03:00:30.695Z,1010.38
2019-01-08T03:01:30.655Z,1010.37
2019-01-08T03:02:30.665Z,1010.33
2019-01-08T03:03:30.660Z,1010.35
2019-01-08T03:04:30.551Z,1010.33
2019-01-08T03:05:30.547Z,1010.37
2019-01-08T03:06:30.469Z,1010.33
2019-01-08T03:07:30.440Z,1010.30
2019-01-08T03:08:30.441Z,1010.30
2019-01-08T03:09:30.365Z,1010.28
2019-01-08T03:10:30.325Z,1010.34
2019-01-08T03:11:30.280Z,1010.27
2019-01-08T03:12:30.245Z,1010.24
2019-01-08T03:13:30.220Z,1010.24
2019-01-08T03:14:30.221Z,1010.18
2019-01-08T03:15:30.141Z,1010.21
2019-01-08T03:16:30.122Z,1010.19
2019-01-08T03:17:30.071Z,1010.14
2019-01-08T03:18:30.032Z,1010.14
2019-01-08T03:19:30.035Z,1010.08
2019-01-08T03:20:29.969Z,1010.12
2019-01-08T03:21:29.925Z,1010.11
2019-01-08T03:22:29.885Z,1010.10
2019-01-08T03:23:29.885Z,1010.00
2019-01-08T03:24:29.812Z,1010.07
2019-01-08T03:25:29.776Z,1010.08
2019-01-08T03:26:29.763Z,1010.04
2019-01-08T03:27:29.729Z,1010.05
2019-01-08T03:28:29.687Z,1009.95
2019-01-08T03:29:33.739Z,1010.00
2019-01-08T03:30:29.602Z,1009.99
2019-01-08T03:31:29.593Z,1010.06
2019-01-08T03:32:29.518Z,1010.05
2019-01-08T03:33:29.489Z,1009.97
2019-01-08T03:34:29.438Z,1009.94
2019-01-08T03:35:29.418Z,1009.97
2019-01-08T03:36:29.436Z,1009.95
2019-01-08T03:37:29.342Z,1009.91
2019-01-08T03:38:29.305Z,1009.87
2019-01-08T03:39:29.266Z,1009.89
2019-01-08T03:40:29.228Z,1009.91
2019-01-08T03:41:29.196Z,1010.06
2019-01-08T03:42:29.172Z,1009.87
2019-01-08T03:43:29.121Z,1009.87
2019-01-08T03:44:29.078Z,1009.90
2019-01-08T03:45:29.052Z,1009.80
2019-01-08T03:46:29.041Z,1009.77
2019-01-08T03:47:28.993Z,1009.79
2019-01-08T03:48:28.941Z,1009.78
2019-01-08T03:49:28.908Z,1009.80
2019-01-08T03:50:28.888Z,1009.75
2019-01-08T03:51:28.829Z,1009.78
2019-01-08T03:52:28.841Z,1009.73
2019-01-08T03:53:28.789Z,1009.73
2019-01-08T03:54:28.761Z,1009.75
2019-01-08T03:55:28.677Z,1009.69
2019-01-08T03:56:28.654Z,1009.76
2019-01-08T03:57:28.616Z,1009.74
2019-01-08T03:58:28.587Z,1009.73
2019-01-08T03:59:28.532Z,1009.72
2019-01-08T04:00:28.488Z,1009.67
2019-01-08T04:01:28.462Z,1009.72
2019-01-08T04:02:28.420Z,1009.75
2019-01-08T04:03:28.431Z,1009.71
2019-01-08T04:04:28.342Z,1009.70
2019-01-08T04:05:28.317Z,1009.66
2019-01-08T04:06:28.303Z,1009.65
2019-01-08T04:07:28.238Z,1009.67
2019-01-08T04:08:28.202Z,1009.60
2019-01-08T04:09:28.190Z,1009.64
2019-01-08T04:10:28.152Z,1009.60
2019-01-08T04:11:28.082Z,1009.64
2019-01-08T04:12:28.069Z,1009.59
2019-01-08T04:13:28.022Z,1009.62
2019-01-08T04:14:27.978Z,1009.62
2019-01-08T04:15:27.963Z,1009.62
2019-01-08T04:16:27.904Z,1009.49
2019-01-08T04:17:27.875Z,1009.62
2019-01-08T04:18:27.833Z,1009.55
2019-01-08T04:19:27.794Z,1009.53
2019-01-08T04:20:27.764Z,1009.56
2019-01-08T04:21:27.719Z,1009.56
2019-01-08T04:22:27.732Z,1009.59
2019-01-08T04:23:29.422Z,1009.52
2019-01-08T04:24:27.639Z,1009.53
2019-01-08T04:25:27.577Z,1009.52
2019-01-08T04:26:27.544Z,1009.47
2019-01-08T04:27:27.504Z,1009.50
2019-01-08T04:28:27.464Z,1009.44
2019-01-08T04:29:27.428Z,1009.47
2019-01-08T04:30:27.423Z,1009.44
2019-01-08T04:31:27.348Z,1009.44
2019-01-08T04:32:27.329Z,1009.38
2019-01-08T04:33:27.315Z,1009.39
2019-01-08T04:34:27.250Z,1009.34
2019-01-08T04:35:27.205Z,1009.30
2019-01-08T04:36:27.173Z,1009.35
2019-01-08T04:37:27.140Z,1009.38
2019-01-08T04:38:27.105Z,1009.36
2019-01-08T04:39:27.075Z,1009.30
2019-01-08T04:40:27.028Z,1009.31
2019-01-08T04:41:26.993Z,1009.27
2019-01-08T04:42:26.963Z,1009.26
2019-01-08T04:43:26.913Z,1009.26
2019-01-08T04:44:26.874Z,1009.26
2019-01-08T04:45:26.855Z,1009.30
2019-01-08T04:46:26.815Z,1009.24
2019-01-08T04:47:26.765Z,1009.27
2019-01-08T04:48:26.759Z,1009.23
2019-01-08T04:49:26.700Z,1009.24
2019-01-08T04:50:26.669Z,1009.19
2019-01-08T04:51:26.624Z,1009.23
2019-01-08T04:52:26.591Z,1009.16
2019-01-08T04:53:26.551Z,1009.18
2019-01-08T04:54:26.509Z,1009.17
2019-01-08T04:55:26.471Z,1009.15
2019-01-08T04:56:26.440Z,1009.13
2019-01-08T04:57:26.426Z,1009.09
2019-01-08T04:58:26.375Z,1009.09
2019-01-08T04:59:26.330Z,1009.09
2019-01-08T05:00:26.302Z,1009.06
2019-01-08T05:01:26.261Z,1009.11
2019-01-08T05:02:26.224Z,1009.05
2019-01-08T05:03:26.186Z,1009.02
2019-01-08T05:04:26.152Z,1009.03
2019-01-08T05:05:26.112Z,1009.00
2019-01-08T05:06:26.082Z,1009.04
2019-01-08T05:07:26.029Z,1009.00
2019-01-08T05:08:25.990Z,1008.99
2019-01-08T05:09:25.969Z,1009.03
2019-01-08T05:10:25.942Z,1009.06
2019-01-08T05:11:25.896Z,1009.04
2019-01-08T05:12:25.850Z,1008.98
2019-01-08T05:13:25.862Z,1009.03
2019-01-08T05:14:25.775Z,1009.01
2019-01-08T05:15:25.752Z,1009.00
2019-01-08T05:16:25.737Z,1008.91
2019-01-08T05:17:25.677Z,1008.93
2019-01-08T05:18:25.626Z,1008.95
2019-01-08T05:19:25.592Z,1008.91
2019-01-08T05:20:25.556Z,1008.85
2019-01-08T05:21:25.537Z,1008.91
2019-01-08T05:22:25.486Z,1008.86
2019-01-08T05:23:25.472Z,1008.75
2019-01-08T05:24:25.436Z,1008.84
2019-01-08T05:25:25.367Z,1008.86
2019-01-08T05:26:25.361Z,1008.78
2019-01-08T05:27:25.322Z,1008.83
2019-01-08T05:28:25.286Z,1008.89
2019-01-08T05:29:25.256Z,1008.84
2019-01-08T05:30:25.189Z,1008.76
2019-01-08T05:31:25.139Z,1008.71
2019-01-08T05:32:25.138Z,1008.76
2019-01-08T05:33:25.083Z,1008.75
2019-01-08T05:34:25.058Z,1008.68
2019-01-08T05:35:25.053Z,1008.75
2019-01-08T05:36:24.967Z,1008.75
2019-01-08T05:37:24.922Z,1008.66
2019-01-08T05:38:24.926Z,1008.69
2019-01-08T05:39:24.852Z,1008.70
2019-01-08T05:40:24.842Z,1008.66
2019-01-08T05:41:24.782Z,1008.58
2019-01-08T05:42:24.753Z,1008.64
2019-01-08T05:43:24.711Z,1008.62
2019-01-08T05:44:24.683Z,1008.62
2019-01-08T05:45:24.653Z,1008.53
2019-01-08T05:46:24.632Z,1008.57
2019-01-08T05:47:24.563Z,1008.61
2019-01-08T05:48:24.534Z,1008.56
2019-01-08T05:49:24.491Z,1008.59
2019-01-08T05:50:24.458Z,1008.55
2019-01-08T05:51:24.419Z,1008.59
2019-01-08T05:52:24.400Z,1008.50
2019-01-08T05:53:24.341Z,1008.42
2019-01-08T05:54:24.299Z,1008.45
2019-01-08T05:55:24.277Z,1008.43
2019-01-08T05:56:24.478Z,1008.46
2019-01-08T05:57:24.187Z,1008.48
2019-01-08T05:58:24.173Z,1008.47
2019-01-08T05:59:24.119Z,1008.47
2019-01-08T06:00:24.089Z,1008.45
2019-01-08T06:01:24.042Z,1008.44
2019-01-08T06:02:24.025Z,1008.42
2019-01-08T06:03:23.979Z,1008.46
2019-01-08T06:04:23.944Z,1008.28
2019-01-08T06:05:23.907Z,1008.25
2019-01-08T06:06:23.858Z,1008.18
2019-01-08T06:07:23.824Z,1008.25
2019-01-08T06:08:23.813Z,1008.20
2019-01-08T06:09:23.781Z,1008.20
2019-01-08T06:10:23.718Z,1008.29
2019-01-08T06:11:23.677Z,1008.31
2019-01-08T06:12:23.635Z,1008.30
2019-01-08T06:13:23.595Z,1008.34
2019-01-08T06:14:23.575Z,1008.34
2019-01-08T06:15:23.595Z,1008.37
2019-01-08T06:16:23.512Z,1008.32
2019-01-08T06:17:23.468Z,1008.31
2019-01-08T06:18:23.425Z,1008.31
2019-01-08T06:19:23.384Z,1008.25
2019-01-08T06:20:23.345Z,1008.17
2019-01-08T06:21:23.303Z,1008.22
2019-01-08T06:22:23.303Z,1008.20
2019-01-08T06:23:23.252Z,1008.22
2019-01-08T06:24:23.203Z,1008.24
2019-01-08T06:25:23.171Z,1008.25
2019-01-08T06:26:23.166Z,1008.21
2019-01-08T06:27:23.090Z,1008.17
2019-01-08T06:28:23.065Z,1008.17
2019-01-08T06:29:23.017Z,1008.22
2019-01-08T06:30:24.846Z,1008.21
2019-01-08T06:31:22.941Z,1008.18
2019-01-08T06:32:22.901Z,1008.03
2019-01-08T06:33:22.899Z,1008.14
2019-01-08T06:34:22.829Z,1008.11
2019-01-08T06:35:22.811Z,1008.10
2019-01-08T06:36:22.755Z,1008.22
2019-01-08T06:37:22.744Z,1008.23
2019-01-08T06:38:22.694Z,1008.20
2019-01-08T06:39:22.678Z,1008.13
2019-01-08T06:40:22.601Z,1008.19
2019-01-08T06:41:22.631Z,1008.13
2019-01-08T06:42:22.536Z,1008.08
2019-01-08T06:43:22.506Z,1008.15
2019-01-08T06:44:22.480Z,1008.10
2019-01-08T06:45:22.426Z,1008.08
2019-01-08T06:46:22.395Z,1007.97
2019-01-08T06:47:22.363Z,1008.03
2019-01-08T06:48:22.331Z,1008.05
2019-01-08T06:49:22.276Z,1008.01
2019-01-08T06:50:22.250Z,1008.07
2019-01-08T06:51:22.231Z,1008.08
2019-01-08T06:52:22.180Z,1008.09
2019-01-08T06:53:22.131Z,1008.04
2019-01-08T06:54:30.747Z,1007.94
2019-01-08T06:56:26.505Z,1007.99
2019-01-08T06:57:26.457Z,1007.94
2019-01-08T06:58:26.415Z,1007.97
2019-01-08T06:59:26.371Z,1007.88
2019-01-08T07:00:33.193Z,1007.91
2019-01-08T07:01:26.301Z,1007.85
2019-01-08T07:02:26.257Z,1007.91
2019-01-08T07:03:26.228Z,1007.91
2019-01-08T07:04:26.192Z,1007.86
2019-01-08T07:05:26.150Z,1008.02
2019-01-08T07:06:26.108Z,1008.01
2019-01-08T07:07:26.086Z,1007.96
2019-01-08T07:08:26.045Z,1007.89
2019-01-08T07:09:26.003Z,1007.85
2019-01-08T07:10:25.966Z,1007.85
2019-01-08T07:11:25.936Z,1007.93
2019-01-08T07:12:25.891Z,1007.99
2019-01-08T07:13:25.857Z,1007.80
2019-01-08T07:14:25.817Z,1007.94
2019-01-08T07:15:25.781Z,1007.93
2019-01-08T07:16:25.738Z,1007.93
2019-01-08T07:17:25.713Z,1008.06
2019-01-08T07:18:25.676Z,1007.94
2019-01-08T07:19:25.632Z,1008.05
2019-01-08T07:20:25.606Z,1008.03
2019-01-08T07:21:25.564Z,1008.08
2019-01-08T07:22:25.528Z,1008.03
2019-01-08T07:23:25.484Z,1007.95
2019-01-08T07:24:25.467Z,1007.95
2019-01-08T07:25:25.414Z,1008.00
2019-01-08T07:26:25.381Z,1007.98
2019-01-08T07:27:25.363Z,1007.96
2019-01-08T07:28:25.301Z,1007.94
2019-01-08T07:29:25.272Z,1007.93
2019-01-08T07:30:25.237Z,1007.89
2019-01-08T07:31:25.202Z,1007.90
2019-01-08T07:32:25.165Z,1007.92
2019-01-08T07:33:25.122Z,1007.99
2019-01-08T07:34:25.097Z,1008.01
2019-01-08T07:35:25.062Z,1008.14
2019-01-08T07:36:25.014Z,1008.01
2019-01-08T07:37:24.982Z,1007.99
2019-01-08T07:38:24.939Z,1008.04
2019-01-08T07:39:24.898Z,1008.09
2019-01-08T07:40:24.867Z,1007.92
2019-01-08T07:41:24.834Z,1008.02
2019-01-08T07:42:24.808Z,1007.98
2019-01-08T07:43:24.758Z,1008.03
2019-01-08T07:44:24.722Z,1007.98
2019-01-08T07:45:24.688Z,1007.97
2019-01-08T07:46:24.649Z,1007.93
2019-01-08T07:47:24.612Z,1007.96
2019-01-08T07:48:24.585Z,1008.02
2019-01-08T07:49:24.537Z,1008.08
2019-01-08T07:50:24.502Z,1008.15
2019-01-08T07:51:24.458Z,1008.22
2019-01-08T07:52:24.432Z,1008.07
2019-01-08T07:53:24.387Z,1008.02
2019-01-08T07:54:24.345Z,1007.99
2019-01-08T07:55:24.318Z,1008.02
2019-01-08T07:56:24.284Z,1007.98
2019-01-08T07:57:24.251Z,1008.06
2019-01-08T07:58:24.209Z,1008.14
2019-01-08T07:59:24.169Z,1008.07
2019-01-08T08:00:24.132Z,1008.10
2019-01-08T08:01:24.095Z,1008.16
2019-01-08T08:02:24.115Z,1008.11
2019-01-08T08:03:24.018Z,1008.09
2019-01-08T08:04:24.009Z,1008.12
2019-01-08T08:05:23.954Z,1008.09
2019-01-08T08:06:23.915Z,1008.14
2019-01-08T08:07:23.869Z,1008.18
2019-01-08T08:08:23.834Z,1008.16
2019-01-08T08:09:23.799Z,1008.24
2019-01-08T08:10:23.763Z,1008.29
2019-01-08T08:11:23.740Z,1008.08
2019-01-08T08:12:23.694Z,1008.19
2019-01-08T08:13:23.649Z,1008.19
2019-01-08T08:14:23.611Z,1008.20
2019-01-08T08:15:23.577Z,1008.17
2019-01-08T08:16:23.534Z,1008.11
2019-01-08T08:17:23.501Z,1008.15
2019-01-08T08:18:23.462Z,1008.16
2019-01-08T08:19:23.436Z,1008.13
2019-01-08T08:20:23.400Z,1008.04
2019-01-08T08:21:23.361Z,1007.97
2019-01-08T08:22:23.311Z,1007.99
2019-01-08T08:23:23.275Z,1007.99
2019-01-08T08:24:23.234Z,1007.96
2019-01-08T08:25:23.206Z,1007.97
2019-01-08T08:26:23.173Z,1007.94
2019-01-08T08:27:23.126Z,1007.99
2019-01-08T08:28:23.097Z,1007.94
2019-01-08T08:29:23.050Z,1008.05
2019-01-08T08:30:23.022Z,1007.92
2019-01-08T08:31:22.981Z,1007.88
2019-01-08T08:32:22.941Z,1007.98
2019-01-08T08:33:22.905Z,1007.90
2019-01-08T08:34:22.874Z,1007.97
2019-01-08T08:35:22.822Z,1007.86
2019-01-08T08:36:22.795Z,1007.94
2019-01-08T08:37:22.757Z,1007.94
2019-01-08T08:38:22.721Z,1007.90
2019-01-08T08:39:22.687Z,1007.91
2019-01-08T08:40:22.645Z,1007.86
2019-01-08T08:41:22.610Z,1007.83
2019-01-08T08:42:22.573Z,1007.80
2019-01-08T08:43:22.541Z,1007.88
2019-01-08T08:44:22.499Z,1007.81
2019-01-08T08:45:22.460Z,1007.88
2019-01-08T08:46:22.431Z,1007.73
2019-01-08T08:47:22.395Z,1007.79
2019-01-08T08:48:22.350Z,1007.76
2019-01-08T08:49:22.309Z,1007.80
2019-01-08T08:50:22.275Z,1007.81
2019-01-08T08:51:22.246Z,1007.79
2019-01-08T08:52:22.196Z,1007.79
2019-01-08T08:53:22.163Z,1007.79
2019-01-08T08:54:22.130Z,1007.74
2019-01-08T08:55:22.097Z,1007.77
2019-01-08T08:56:22.052Z,1007.79
2019-01-08T08:57:22.017Z,1007.85
2019-01-08T08:58:21.985Z,1007.81
2019-01-08T08:59:21.946Z,1007.81
2019-01-08T09:00:21.908Z,1007.82
2019-01-08T09:01:21.862Z,1007.84
2019-01-08T09:02:21.832Z,1007.87
2019-01-08T09:03:21.797Z,1007.74
2019-01-08T09:04:21.752Z,1007.81
2019-01-08T09:05:21.726Z,1007.75
2019-01-08T09:06:21.745Z,1007.76
2019-01-08T09:07:21.652Z,1007.79
2019-01-08T09:08:21.606Z,1007.80
2019-01-08T09:09:21.572Z,1007.94
2019-01-08T09:10:21.538Z,1007.68
2019-01-08T09:11:21.507Z,1007.79
2019-01-08T09:12:21.466Z,1007.66
2019-01-08T09:13:21.428Z,1007.74
2019-01-08T09:14:21.386Z,1007.66
2019-01-08T09:15:21.357Z,1007.69
2019-01-08T09:16:21.328Z,1007.74
2019-01-08T09:17:21.280Z,1007.69
2019-01-08T09:18:21.243Z,1007.71
2019-01-08T09:19:21.212Z,1007.69
2019-01-08T09:20:21.166Z,1007.78
2019-01-08T09:21:21.127Z,1007.76
2019-01-08T09:22:21.100Z,1007.74
2019-01-08T09:23:21.051Z,1007.77
2019-01-08T09:24:21.036Z,1007.73
2019-01-08T09:25:20.977Z,1007.78
2019-01-08T09:26:20.954Z,1007.73
2019-01-08T09:27:20.919Z,1007.67
2019-01-08T09:28:20.874Z,1007.70
2019-01-08T09:29:20.835Z,1007.68
2019-01-08T09:30:20.799Z,1007.69
2019-01-08T09:31:20.773Z,1007.63
2019-01-08T09:32:20.727Z,1007.73
2019-01-08T09:33:20.698Z,1007.73
2019-01-08T09:34:20.649Z,1007.83
2019-01-08T09:35:20.624Z,1007.78
2019-01-08T09:36:20.582Z,1007.74
2019-01-08T09:37:20.539Z,1007.72
2019-01-08T09:38:20.513Z,1007.71
2019-01-08T09:39:20.470Z,1007.73
2019-01-08T09:40:20.431Z,1007.66
2019-01-08T09:41:20.394Z,1007.80
2019-01-08T09:42:20.365Z,1007.73
2019-01-08T09:43:20.325Z,1007.77
2019-01-08T09:44:20.277Z,1007.68
2019-01-08T09:45:20.249Z,1007.77
2019-01-08T09:46:20.218Z,1007.74
2019-01-08T09:47:20.170Z,1007.70
2019-01-08T09:48:20.138Z,1007.78
2019-01-08T09:49:20.094Z,1007.80
2019-01-08T09:50:20.061Z,1007.61
2019-01-08T09:51:20.027Z,1007.57
2019-01-08T09:52:19.985Z,1007.60
2019-01-08T09:53:19.957Z,1007.65
2019-01-08T09:54:19.924Z,1007.65
2019-01-08T09:55:19.880Z,1007.62
2019-01-08T09:56:19.834Z,1007.64
2019-01-08T09:57:19.813Z,1007.67
2019-01-08T09:58:19.766Z,1007.70
2019-01-08T09:59:19.738Z,1007.68
2019-01-08T10:00:19.690Z,1007.78
2019-01-08T10:01:24.116Z,1007.76
2019-01-08T10:02:19.621Z,1007.72
2019-01-08T10:03:19.591Z,1007.64
2019-01-08T10:04:19.556Z,1007.71
2019-01-08T10:05:19.513Z,1007.63
2019-01-08T10:06:19.471Z,1007.67
2019-01-08T10:07:19.443Z,1007.71
2019-01-08T10:08:19.404Z,1007.63
2019-01-08T10:09:19.361Z,1007.66
2019-01-08T10:10:19.331Z,1007.62
2019-01-08T10:11:19.291Z,1007.69
2019-01-08T10:12:19.256Z,1007.61
2019-01-08T10:13:19.216Z,1007.72
2019-01-08T10:14:19.186Z,1007.61
2019-01-08T10:15:19.137Z,1007.70
2019-01-08T10:16:19.104Z,1007.69
2019-01-08T10:17:19.071Z,1007.74
2019-01-08T10:18:19.042Z,1007.67
2019-01-08T10:19:18.990Z,1007.71
2019-01-08T10:20:18.974Z,1007.76
2019-01-08T10:21:18.920Z,1007.77
2019-01-08T10:22:18.888Z,1007.74
2019-01-08T10:23:18.863Z,1007.66
2019-01-08T10:24:18.820Z,1007.76
2019-01-08T10:25:18.780Z,1007.72
2019-01-08T10:26:18.755Z,1007.65
2019-01-08T10:27:18.705Z,1007.70
2019-01-08T10:28:18.661Z,1007.74
2019-01-08T10:29:18.639Z,1007.62
2019-01-08T10:30:18.593Z,1007.67
2019-01-08T10:31:18.572Z,1007.72
2019-01-08T10:32:18.517Z,1007.63
2019-01-08T10:33:18.481Z,1007.60
2019-01-08T10:34:18.452Z,1007.64
2019-01-08T10:35:18.418Z,1007.64
2019-01-08T10:36:18.365Z,1007.68
2019-01-08T10:37:18.339Z,1007.66
2019-01-08T10:38:18.295Z,1007.63
2019-01-08T10:39:18.305Z,1007.56
2019-01-08T10:40:18.236Z,1007.58
2019-01-08T10:41:18.196Z,1007.54
2019-01-08T10:42:18.141Z,1007.58
2019-01-08T10:43:18.146Z,1007.57
2019-01-08T10:44:18.077Z,1007.51
2019-01-08T10:45:18.043Z,1007.46
2019-01-08T10:46:18.004Z,1007.47
2019-01-08T10:47:17.976Z,1007.48
2019-01-08T10:48:17.982Z,1007.47
2019-01-08T10:49:17.892Z,1007.40
2019-01-08T10:50:17.863Z,1007.42
2019-01-08T10:51:17.826Z,1007.43
2019-01-08T10:52:17.797Z,1007.41
2019-01-08T10:53:17.752Z,1007.42
2019-01-08T10:54:17.713Z,1007.45
2019-01-08T10:55:17.682Z,1007.56
2019-01-08T10:56:17.653Z,1007.38
2019-01-08T10:57:17.603Z,1007.41
2019-01-08T10:58:17.596Z,1007.43
2019-01-08T10:59:17.538Z,1007.31
2019-01-08T11:00:17.504Z,1007.38
2019-01-08T11:01:17.466Z,1007.35
2019-01-08T11:02:17.440Z,1007.33
2019-01-08T11:03:17.393Z,1007.42
2019-01-08T11:04:17.358Z,1007.33
2019-01-08T11:05:17.322Z,1007.32
2019-01-08T11:06:17.289Z,1007.25
2019-01-08T11:07:17.359Z,1007.28
2019-01-08T11:08:17.214Z,1007.31
2019-01-08T11:09:17.167Z,1007.30
2019-01-08T11:10:17.138Z,1007.32
2019-01-08T11:11:17.098Z,1007.23
2019-01-08T11:12:17.062Z,1007.19
2019-01-08T11:13:17.018Z,1007.22
2019-01-08T11:14:16.998Z,1007.28
2019-01-08T11:15:16.953Z,1007.19
2019-01-08T11:16:16.917Z,1007.21
2019-01-08T11:17:16.878Z,1007.21
2019-01-08T11:18:16.847Z,1007.22
2019-01-08T11:19:16.808Z,1007.19
2019-01-08T11:20:16.784Z,1007.22
2019-01-08T11:21:16.728Z,1007.16
2019-01-08T11:22:16.703Z,1007.16
2019-01-08T11:23:16.668Z,1007.17
2019-01-08T11:24:16.627Z,1007.10
2019-01-08T11:25:16.599Z,1007.17
2019-01-08T11:26:16.562Z,1007.19
2019-01-08T11:27:16.510Z,1007.12
2019-01-08T11:28:16.479Z,1007.13
2019-01-08T11:29:16.439Z,1007.19
2019-01-08T11:30:16.398Z,1007.15
2019-01-08T11:31:16.374Z,1007.01
2019-01-08T11:32:16.339Z,1007.10
2019-01-08T11:33:16.309Z,1007.06
2019-01-08T11:34:16.259Z,1007.07
2019-01-08T11:35:16.229Z,1007.09
2019-01-08T11:36:16.189Z,1007.13
2019-01-08T11:37:16.149Z,1007.06
2019-01-08T11:38:16.125Z,1007.12
2019-01-08T11:39:16.073Z,1007.04
2019-01-08T11:40:17.468Z,1007.02
2019-01-08T11:41:16.017Z,1007.20
2019-01-08T11:42:15.969Z,1007.08
2019-01-08T11:43:15.931Z,1007.12
2019-01-08T11:44:15.896Z,1007.18
2019-01-08T11:45:15.860Z,1007.22
2019-01-08T11:46:15.821Z,1007.14
2019-01-08T11:47:15.780Z,1007.09
2019-01-08T11:48:15.742Z,1007.25
2019-01-08T11:49:15.714Z,1007.05
2019-01-08T11:50:15.674Z,1007.04
2019-01-08T11:51:15.635Z,1007.06
2019-01-08T11:52:15.601Z,1006.95
2019-01-08T11:53:15.569Z,1006.88
2019-01-08T11:54:15.530Z,1006.99
2019-01-08T11:55:15.499Z,1006.97
2019-01-08T11:56:15.452Z,1007.04
2019-01-08T11:57:15.447Z,1006.99
2019-01-08T11:58:15.384Z,1006.99
2019-01-08T11:59:15.351Z,1006.92
2019-01-08T12:00:15.315Z,1007.09
2019-01-08T12:01:15.275Z,1007.12
2019-01-08T12:02:15.241Z,1007.15
2019-01-08T12:03:15.205Z,1007.09
2019-01-08T12:04:15.169Z,1007.11
2019-01-08T12:05:15.126Z,1007.15
2019-01-08T12:06:15.091Z,1007.15
2019-01-08T12:07:15.081Z,1007.04